Time;durP1;ratioP1;P1;durP2;ratioP2;P2;SDS_P1;SDS_P2;PMS_P1;PMS_P2;Temp;Humidity;BMP_temperature;BMP_pressure;BME280_temperature;BME280_humidity;BME280_pressure;Samples;Min_cycle;Max_cycle;Signal;HPM_P1;HPM_P2
2023/02/22 00:00:47;;;;;;;1.60;0.80;;;;;;;5.33;100.00;99994.47;4955910;28;20038;-81
2023/02/22 00:03:15;;;;;;;1.67;0.35;;;;;;;5.28;100.00;99993.13;4959174;28;20484;-81
2023/02/22 00:05:52;;;;;;;4.25;0.77;;;;;;;5.27;100.00;100000.16;4950993;28;20488;-81
2023/02/22 00:08:21;;;;;;;2.03;0.30;;;;;;;5.26;100.00;100003.75;4952655;28;20396;-81
2023/02/22 00:10:50;;;;;;;2.03;0.40;;;;;;;5.29;100.00;99998.25;4942135;28;20121;-83
2023/02/22 00:13:17;;;;;;;2.22;0.40;;;;;;;5.32;100.00;99997.16;4953286;28;20062;-80
2023/02/22 00:15:43;;;;;;;2.90;0.95;;;;;;;5.29;100.00;100000.03;4951006;28;20035;-80
2023/02/22 00:18:13;;;;;;;6.53;1.42;;;;;;;5.32;100.00;100002.41;4954672;28;20038;-80
2023/02/22 00:20:39;;;;;;;6.38;0.50;;;;;;;5.37;100.00;99999.47;4960999;28;20042;-82
2023/02/22 00:23:06;;;;;;;2.30;0.40;;;;;;;5.41;100.00;100006.13;4950447;28;20042;-81
2023/02/22 00:25:33;;;;;;;4.72;0.50;;;;;;;5.36;100.00;100005.63;4941990;28;20043;-82
2023/02/22 00:27:59;;;;;;;3.60;0.70;;;;;;;5.39;100.00;100003.63;4963530;28;20047;-82
2023/02/22 00:30:30;;;;;;;4.40;1.35;;;;;;;5.45;100.00;100012.75;4936689;28;20579;-82
2023/02/22 00:32:57;;;;;;;4.53;0.70;;;;;;;5.43;100.00;100014.69;4954089;28;20046;-82
2023/02/22 00:35:25;;;;;;;3.05;0.60;;;;;;;5.43;100.00;100014.69;4951217;28;20039;-82
2023/02/22 00:37:53;;;;;;;3.65;0.57;;;;;;;5.42;100.00;100018.25;4955498;28;20027;-82
2023/02/22 00:40:22;;;;;;;4.43;0.47;;;;;;;5.41;100.00;100027.91;4948100;28;20454;-82
2023/02/22 00:42:48;;;;;;;2.25;0.50;;;;;;;5.39;100.00;100018.50;4942827;28;20090;-82
2023/02/22 00:45:22;;;;;;;3.20;0.40;;;;;;;5.44;100.00;100016.34;4951577;28;20476;-82
2023/02/22 00:47:48;;;;;;;5.00;1.02;;;;;;;5.43;100.00;100014.69;4932252;28;20050;-82
2023/02/22 00:50:18;;;;;;;1.35;0.50;;;;;;;5.45;100.00;100015.38;4953159;28;20045;-82
2023/02/22 00:52:44;;;;;;;4.45;0.85;;;;;;;5.52;100.00;100034.94;4930513;29;20552;-82
2023/02/22 00:55:18;;;;;;;2.85;0.50;;;;;;;5.57;100.00;100035.38;4936144;29;20039;-82
2023/02/22 00:57:44;;;;;;;2.92;0.52;;;;;;;5.53;100.00;100041.84;4941207;28;20047;-82
2023/02/22 01:00:15;;;;;;;5.85;0.70;;;;;;;5.56;100.00;100038.97;4940695;28;20037;-82
2023/02/22 01:02:42;;;;;;;5.05;0.47;;;;;;;5.55;100.00;100049.56;4936826;28;20051;-82
2023/02/22 01:05:11;;;;;;;3.22;0.40;;;;;;;5.59;100.00;100046.59;4935288;29;20125;-82
2023/02/22 01:07:38;;;;;;;2.03;0.50;;;;;;;5.61;100.00;100048.25;4927616;29;20054;-82
2023/02/22 01:10:07;;;;;;;5.25;0.68;;;;;;;5.65;100.00;100053.16;4946347;28;20038;-82
2023/02/22 01:12:33;;;;;;;2.15;0.50;;;;;;;5.67;100.00;100047.78;4939562;29;20480;-82
2023/02/22 01:15:00;;;;;;;2.53;0.43;;;;;;;5.65;100.00;100054.94;4951296;28;20135;-82
2023/02/22 01:17:26;;;;;;;3.63;0.82;;;;;;;5.68;100.00;100054.69;4949524;28;20046;-82
2023/02/22 01:19:53;;;;;;;4.15;0.55;;;;;;;5.64;100.00;100064.56;4962759;28;20087;-82
2023/02/22 01:22:22;;;;;;;4.85;0.55;;;;;;;5.62;100.00;100060.41;4957269;28;20035;-82
2023/02/22 01:24:49;;;;;;;9.68;0.70;;;;;;;5.60;100.00;100052.69;4945738;28;20039;-82
2023/02/22 01:27:17;;;;;;;2.15;0.55;;;;;;;5.58;100.00;100054.56;4949336;28;20065;-82
2023/02/22 01:29:43;;;;;;;3.42;0.30;;;;;;;5.49;100.00;100044.81;4920058;29;20047;-82
2023/02/22 01:32:10;;;;;;;4.57;0.60;;;;;;;5.44;100.00;100060.91;4957079;28;20038;-82
2023/02/22 01:34:37;;;;;;;2.92;0.65;;;;;;;5.41;100.00;100062.00;4936778;28;20038;-82
2023/02/22 01:37:05;;;;;;;4.57;0.70;;;;;;;5.42;100.00;100061.03;4951398;28;20058;-82
2023/02/22 01:39:31;;;;;;;5.53;0.80;;;;;;;5.40;100.00;100055.06;4958655;28;20039;-82
2023/02/22 01:41:57;;;;;;;8.18;0.70;;;;;;;5.38;100.00;100059.63;4946759;28;20062;-82
2023/02/22 01:44:29;;;;;;;2.38;0.50;;;;;;;5.40;100.00;100062.94;4950710;28;20037;-82
2023/02/22 01:47:00;;;;;;;5.85;0.60;;;;;;;5.40;100.00;100059.50;4954239;28;20571;-82
2023/02/22 01:49:50;;;;;;;3.38;0.50;;;;;;;5.38;100.00;100062.25;4953542;28;20536;-82
2023/02/22 01:52:19;;;;;;;5.63;0.63;;;;;;;5.34;100.00;100063.41;4969683;28;20041;-82
2023/02/22 01:54:51;;;;;;;6.90;1.20;;;;;;;5.33;100.00;100062.59;4949685;28;20030;-82
2023/02/22 01:57:23;;;;;;;0.90;0.30;;;;;;;5.33;100.00;100065.22;4949620;28;20036;-82
2023/02/22 01:59:58;;;;;;;4.80;0.70;;;;;;;5.35;100.00;100075.59;4933779;28;20071;-82
2023/02/22 02:02:24;;;;;;;3.40;0.57;;;;;;;5.37;100.00;100073.66;4929339;29;20491;-82
2023/02/22 02:04:55;;;;;;;6.82;0.75;;;;;;;5.36;100.00;100076.41;4953297;28;20043;-81
2023/02/22 02:07:23;;;;;;;3.95;0.50;;;;;;;5.41;100.00;100077.72;4887379;28;20040;-82
2023/02/22 02:10:06;;;;;;;2.88;0.80;;;;;;;5.43;100.00;100080.22;4952952;28;20084;-82
2023/02/22 02:12:34;;;;;;;7.13;0.85;;;;;;;5.42;100.00;100078.53;4950954;28;20065;-82
2023/02/22 02:15:24;;;;;;;1.08;0.40;;;;;;;5.42;100.00;100075.91;4952108;28;20051;-82
2023/02/22 02:17:53;;;;;;;1.73;0.57;;;;;;;5.35;100.00;100067.72;4940731;28;20400;-82
2023/02/22 02:20:25;;;;;;;4.32;0.50;;;;;;;5.33;100.00;100078.31;4948277;28;20355;-81
2023/02/22 02:23:21;;;;;;;3.85;0.45;;;;;;;5.33;100.00;100082.72;4931037;28;20031;-82
2023/02/22 02:26:09;;;;;;;3.88;0.60;;;;;;;5.33;100.00;100086.19;4950548;28;20039;-82
2023/02/22 02:29:06;;;;;;;4.15;0.73;;;;;;;5.32;100.00;100083.66;4950288;28;20047;-82
2023/02/22 02:32:14;;;;;;;5.03;0.60;;;;;;;5.28;100.00;100082.22;4958026;28;20074;-80
2023/02/22 02:34:50;;;;;;;7.68;0.80;;;;;;;5.32;100.00;100091.50;4919118;29;20118;-82
2023/02/22 02:37:37;;;;;;;5.90;0.73;;;;;;;5.31;100.00;100108.22;4959763;28;20058;-80
2023/02/22 02:40:20;;;;;;;3.92;0.47;;;;;;;5.21;100.00;100098.44;4971076;28;20057;-81
2023/02/22 02:43:17;;;;;;;2.97;0.90;;;;;;;5.21;100.00;100106.28;4932912;28;20121;-81
2023/02/22 02:45:59;;;;;;;1.83;0.35;;;;;;;5.17;100.00;100109.28;4928077;28;20069;-81
2023/02/22 02:48:27;;;;;;;1.48;0.47;;;;;;;5.09;100.00;100104.63;4922794;29;20485;-81
2023/02/22 02:50:56;;;;;;;1.83;0.20;;;;;;;5.11;100.00;100109.75;4949524;28;20035;-81
2023/02/22 02:53:29;;;;;;;2.25;0.40;;;;;;;5.03;100.00;100110.31;4933642;29;20090;-81
2023/02/22 02:55:58;;;;;;;2.13;0.52;;;;;;;5.00;100.00;100116.63;4954348;28;20039;-81
2023/02/22 02:58:27;;;;;;;3.28;0.30;;;;;;;5.00;100.00;100108.75;4918070;29;20050;-81
2023/02/22 03:00:59;;;;;;;1.95;0.68;;;;;;;4.89;100.00;100127.09;4930015;29;20090;-81
2023/02/22 03:03:36;;;;;;;3.65;0.60;;;;;;;4.88;100.00;100138.50;4953259;28;20042;-81
2023/02/22 03:06:25;;;;;;;5.72;0.43;;;;;;;4.84;100.00;100130.06;4945752;28;20035;-81
2023/02/22 03:09:33;;;;;;;5.90;0.80;;;;;;;4.86;100.00;100127.31;4928891;29;20098;-81
2023/02/22 03:12:13;;;;;;;7.88;0.65;;;;;;;4.74;100.00;100136.91;4901272;28;20417;-81
2023/02/22 03:14:54;;;;;;;2.10;0.57;;;;;;;4.72;100.00;100137.03;4918084;28;20050;-81
2023/02/22 03:17:40;;;;;;;4.68;0.50;;;;;;;4.69;100.00;100152.97;4932981;28;20563;-81
2023/02/22 03:20:08;;;;;;;2.83;0.60;;;;;;;4.60;100.00;100157.09;4924781;28;20042;-81
2023/02/22 03:22:49;;;;;;;2.80;0.40;;;;;;;4.66;100.00;100166.28;4932220;28;20038;-81
2023/02/22 03:25:42;;;;;;;2.22;0.20;;;;;;;4.53;100.00;100161.94;4946539;28;20035;-81
2023/02/22 03:28:13;;;;;;;1.63;0.30;;;;;;;4.41;100.00;100165.47;4927015;28;20626;-80
2023/02/22 03:30:56;;;;;;;0.55;0.25;;;;;;;4.29;100.00;100169.78;4946452;28;20108;-81
2023/02/22 03:33:35;;;;;;;1.45;0.30;;;;;;;4.29;100.00;100164.53;4944551;28;20046;-80
2023/02/22 03:36:15;;;;;;;1.60;0.30;;;;;;;4.24;100.00;100167.50;4934677;29;20034;-77
2023/02/22 03:38:44;;;;;;;1.08;0.20;;;;;;;4.24;100.00;100166.69;4949280;28;20027;-77
2023/02/22 03:41:15;;;;;;;2.50;0.20;;;;;;;4.25;100.00;100171.81;4948670;28;20041;-80
2023/02/22 03:43:49;;;;;;;2.92;0.40;;;;;;;4.29;100.00;100177.63;4939426;29;20039;-81
2023/02/22 03:46:18;;;;;;;3.78;0.13;;;;;;;4.28;100.00;100175.97;4946493;28;20054;-81
2023/02/22 03:48:58;;;;;;;3.95;0.43;;;;;;;4.27;100.00;100167.28;4931199;28;20047;-81
2023/02/22 03:51:28;;;;;;;5.43;0.40;;;;;;;4.25;100.00;100178.81;4945764;28;20051;-81
2023/02/22 03:53:58;;;;;;;2.30;0.50;;;;;;;4.25;100.00;100184.03;4945562;28;20102;-81
2023/02/22 03:56:35;;;;;;;4.55;0.57;;;;;;;4.19;100.00;100180.91;4933130;28;20110;-81
2023/02/22 03:59:05;;;;;;;3.45;0.30;;;;;;;4.12;100.00;100176.22;4943269;28;20047;-81
2023/02/22 04:01:32;;;;;;;2.40;0.45;;;;;;;4.02;100.00;100169.03;4949436;28;20035;-80
2023/02/22 04:03:59;;;;;;;5.63;0.47;;;;;;;3.94;100.00;100160.88;4950405;28;20040;-80
2023/02/22 04:06:26;;;;;;;6.57;0.60;;;;;;;3.90;100.00;100162.88;4941451;28;20633;-81
2023/02/22 04:08:52;;;;;;;3.22;0.30;;;;;;;3.88;100.00;100166.53;4947014;28;20034;-80
2023/02/22 04:11:18;;;;;;;3.38;0.55;;;;;;;3.84;100.00;100164.16;4952578;28;20369;-81
2023/02/22 04:13:44;;;;;;;4.32;0.40;;;;;;;3.80;100.00;100165.31;4950832;28;20089;-80
2023/02/22 04:16:10;;;;;;;3.00;0.50;;;;;;;3.77;100.00;100156.84;4947627;28;20391;-80
2023/02/22 04:18:36;;;;;;;3.45;0.68;;;;;;;3.69;100.00;100155.63;4946245;29;20032;-80
2023/02/22 04:21:02;;;;;;;5.75;0.55;;;;;;;3.70;100.00;100153.81;4938234;28;20037;-80
2023/02/22 04:23:42;;;;;;;3.65;0.52;;;;;;;3.70;100.00;100148.59;4949292;28;20066;-81
2023/02/22 04:26:08;;;;;;;3.83;0.30;;;;;;;3.68;100.00;100147.88;4956320;28;20030;-80
2023/02/22 04:28:33;;;;;;;5.90;0.40;;;;;;;3.61;100.00;100142.22;4930545;29;20042;-80
2023/02/22 04:31:11;;;;;;;2.03;0.50;;;;;;;3.59;100.00;100150.19;4948837;28;20078;-80
2023/02/22 04:33:38;;;;;;;4.63;0.85;;;;;;;3.62;100.00;100148.28;4929957;29;20044;-80
2023/02/22 04:36:04;;;;;;;3.15;0.40;;;;;;;3.60;100.00;100158.84;4949923;28;20083;-80
2023/02/22 04:38:32;;;;;;;6.07;0.50;;;;;;;3.69;100.00;100166.06;4951923;28;20038;-80
2023/02/22 04:40:59;;;;;;;2.08;0.20;;;;;;;3.76;100.00;100168.25;4950121;28;20046;-80
2023/02/22 04:43:26;;;;;;;3.70;0.50;;;;;;;3.80;100.00;100167.09;4917636;29;20051;-80
2023/02/22 04:45:57;;;;;;;3.63;0.50;;;;;;;3.85;100.00;100168.44;4934070;28;20039;-78
2023/02/22 04:48:22;;;;;;;4.70;0.55;;;;;;;3.89;100.00;100178.66;4915877;29;20515;-77
2023/02/22 04:50:50;;;;;;;1.90;0.25;;;;;;;3.85;100.00;100173.66;4947931;28;20877;-80
2023/02/22 04:53:15;;;;;;;4.45;0.90;;;;;;;3.84;100.00;100179.00;4926504;28;20031;-80
2023/02/22 04:55:41;;;;;;;2.28;0.40;;;;;;;3.82;100.00;100181.72;4949075;28;20518;-80
2023/02/22 04:58:08;;;;;;;2.40;0.20;;;;;;;3.78;100.00;100179.41;4956788;28;20051;-80
2023/02/22 05:00:34;;;;;;;4.70;0.50;;;;;;;3.74;100.00;100188.44;4928010;28;20035;-79
2023/02/22 05:03:01;;;;;;;4.05;0.30;;;;;;;3.69;100.00;100193.97;4945955;28;20051;-80
2023/02/22 05:05:27;;;;;;;2.10;0.20;;;;;;;3.66;100.00;100195.03;4937568;28;20044;-80
2023/02/22 05:07:53;;;;;;;2.50;0.52;;;;;;;3.63;100.00;100202.25;4938848;28;20035;-80
2023/02/22 05:10:19;;;;;;;3.28;0.73;;;;;;;3.65;100.00;100195.09;4934983;28;20030;-80
2023/02/22 05:12:45;;;;;;;4.90;1.27;;;;;;;3.62;100.00;100195.31;4948216;28;20038;-80
2023/02/22 05:15:17;;;;;;;3.00;0.30;;;;;;;3.66;100.00;100196.81;4940865;29;20031;-80
2023/02/22 05:17:43;;;;;;;6.90;0.70;;;;;;;3.58;100.00;100195.53;4941608;28;20527;-80
2023/02/22 05:20:26;;;;;;;6.88;0.60;;;;;;;3.58;100.00;100200.75;4955842;28;20522;-80
2023/02/22 05:22:54;;;;;;;1.80;0.32;;;;;;;3.52;100.00;100206.41;4948825;28;20043;-80
2023/02/22 05:25:20;;;;;;;1.02;0.40;;;;;;;3.47;100.00;100211.94;4929514;29;20035;-80
2023/02/22 05:27:51;;;;;;;4.32;0.63;;;;;;;3.47;100.00;100208.53;4944752;28;20049;-80
2023/02/22 05:30:23;;;;;;;6.85;0.73;;;;;;;3.43;100.00;100204.41;4940838;28;20035;-80
2023/02/22 05:32:49;;;;;;;4.05;0.40;;;;;;;3.40;100.00;100202.03;4911845;29;20613;-80
2023/02/22 05:35:17;;;;;;;9.25;0.82;;;;;;;3.39;100.00;100202.97;4937592;28;20392;-80
2023/02/22 05:37:42;;;;;;;5.57;1.30;;;;;;;3.40;100.00;100202.03;4955180;28;20047;-80
2023/02/22 05:40:09;;;;;;;3.00;0.60;;;;;;;3.38;100.00;100204.72;4942171;28;20032;-80
2023/02/22 05:42:34;;;;;;;6.97;0.73;;;;;;;3.32;100.00;100207.75;4949664;28;20507;-80
2023/02/22 05:45:00;;;;;;;11.13;1.23;;;;;;;3.32;100.00;100223.44;4953719;28;20031;-80
2023/02/22 05:47:27;;;;;;;4.55;0.50;;;;;;;3.32;100.00;100223.44;4945662;28;20044;-80
2023/02/22 05:49:52;;;;;;;3.97;0.65;;;;;;;3.34;100.00;100222.38;4950026;28;20052;-80
2023/02/22 05:52:18;;;;;;;5.47;0.80;;;;;;;3.34;100.00;100239.84;4958372;28;20038;-80
2023/02/22 05:54:44;;;;;;;6.15;0.47;;;;;;;3.40;100.00;100252.50;4952566;28;20058;-80
2023/02/22 05:57:10;;;;;;;4.57;1.30;;;;;;;3.39;100.00;100256.06;4949650;28;20404;-80
2023/02/22 05:59:35;;;;;;;3.72;0.70;;;;;;;3.33;100.00;100261.69;4945661;28;20477;-80
2023/02/22 06:02:01;;;;;;;5.15;0.88;;;;;;;3.32;100.00;100262.63;4948365;28;20248;-80
2023/02/22 06:04:28;;;;;;;9.23;0.88;;;;;;;3.31;100.00;100274.03;4956102;28;20034;-80
2023/02/22 06:06:53;;;;;;;4.45;0.70;;;;;;;3.30;100.00;100275.78;4952630;28;20027;-80
2023/02/22 06:09:19;;;;;;;4.95;3.20;;;;;;;3.24;100.00;100278.81;4948846;28;20039;-80
2023/02/22 06:11:45;;;;;;;6.32;0.60;;;;;;;3.27;100.00;100286.44;4940979;28;20046;-80
2023/02/22 06:14:11;;;;;;;2.38;0.80;;;;;;;3.28;100.00;100284.69;4944425;28;20055;-80
2023/02/22 06:16:37;;;;;;;2.30;0.30;;;;;;;3.39;100.00;100291.81;4949466;28;20028;-80
2023/02/22 06:19:03;;;;;;;7.10;1.42;;;;;;;3.45;100.00;100299.22;4946028;28;20036;-80
2023/02/22 06:21:29;;;;;;;5.00;0.52;;;;;;;3.52;100.00;100315.34;4950165;28;20515;-80
2023/02/22 06:23:54;;;;;;;4.95;0.80;;;;;;;3.49;100.00;100311.16;4950625;28;20027;-80
2023/02/22 06:26:21;;;;;;;3.78;0.50;;;;;;;3.44;100.00;100318.47;4952903;28;20042;-80
2023/02/22 06:28:47;;;;;;;2.40;0.50;;;;;;;3.38;100.00;100313.66;4948774;28;20512;-80
2023/02/22 06:31:14;;;;;;;4.13;0.82;;;;;;;3.43;100.00;100319.38;4947924;29;20028;-80
2023/02/22 06:33:40;;;;;;;2.78;0.30;;;;;;;3.38;100.00;100317.09;4948091;28;20065;-79
2023/02/22 06:36:06;;;;;;;5.50;0.82;;;;;;;3.30;100.00;100320.19;4951319;28;20103;-79
2023/02/22 06:38:32;;;;;;;16.77;13.63;;;;;;;3.28;100.00;100324.69;4950167;28;20039;-79
2023/02/22 06:40:58;;;;;;;2.92;0.70;;;;;;;3.33;100.00;100317.38;4948473;28;20031;-79
2023/02/22 06:43:24;;;;;;;2.25;0.63;;;;;;;3.40;100.00;100315.22;4948449;28;20035;-79
2023/02/22 06:45:51;;;;;;;3.75;0.60;;;;;;;3.40;100.00;100314.38;4887426;28;20031;-79
2023/02/22 06:48:17;;;;;;;1.58;0.30;;;;;;;3.41;100.00;100323.91;4946757;28;20062;-80
2023/02/22 06:50:43;;;;;;;1.83;0.40;;;;;;;3.44;100.00;100319.28;4928320;29;20039;-79
2023/02/22 06:53:08;;;;;;;1.30;0.50;;;;;;;3.42;100.00;100320.34;4942137;28;20042;-79
2023/02/22 06:55:35;;;;;;;1.42;0.40;;;;;;;3.41;100.00;100321.28;4943699;28;20038;-79
2023/02/22 06:58:03;;;;;;;1.90;0.63;;;;;;;3.33;100.00;100330.44;4941474;28;20069;-79
2023/02/22 07:00:31;;;;;;;6.28;0.40;;;;;;;3.17;100.00;100327.16;4924550;29;20070;-80
2023/02/22 07:02:57;;;;;;;3.13;0.32;;;;;;;3.02;100.00;100328.97;4942519;28;20139;-79
2023/02/22 07:05:25;;;;;;;4.15;0.60;;;;;;;2.94;100.00;100326.84;4943600;28;20869;-80
2023/02/22 07:07:53;;;;;;;4.15;0.73;;;;;;;2.89;100.00;100340.22;4944063;28;20392;-79
2023/02/22 07:10:26;;;;;;;2.72;0.63;;;;;;;2.95;100.00;100337.22;4945608;28;20543;-79
2023/02/22 07:12:52;;;;;;;5.65;0.40;;;;;;;2.95;100.00;100333.75;4946387;28;20397;-80
2023/02/22 07:15:23;;;;;;;2.95;0.73;;;;;;;2.97;100.00;100332.72;4934974;28;20106;-79
2023/02/22 07:17:50;;;;;;;2.30;0.43;;;;;;;3.04;100.00;100350.63;4932281;29;20123;-79
2023/02/22 07:20:17;;;;;;;2.45;0.50;;;;;;;3.12;100.00;100347.53;4950930;28;20031;-79
2023/02/22 07:22:43;;;;;;;2.53;0.20;;;;;;;3.22;100.00;100345.97;4949158;28;20035;-79
2023/02/22 07:25:10;;;;;;;2.67;0.40;;;;;;;3.33;100.00;100346.13;4956554;28;20039;-79
2023/02/22 07:27:42;;;;;;;2.05;0.20;;;;;;;3.43;100.00;100353.34;4944401;28;20031;-80
2023/02/22 07:30:14;;;;;;;1.63;0.20;;;;;;;3.46;100.00;100355.78;4931149;29;20069;-80
2023/02/22 07:32:45;;;;;;;1.17;0.32;;;;;;;3.40;100.00;100357.03;4950210;28;20074;-79
2023/02/22 07:35:19;;;;;;;2.50;0.57;;;;;;;3.44;100.00;100362.91;4945688;28;20028;-80
2023/02/22 07:37:46;;;;;;;3.40;0.93;;;;;;;3.47;100.00;100360.09;4947475;28;20078;-79
2023/02/22 07:40:15;;;;;;;2.20;0.35;;;;;;;3.47;100.00;100362.69;4941177;28;20034;-79
2023/02/22 07:42:59;;;;;;;5.40;0.70;;;;;;;3.54;100.00;100379.63;4912489;28;20040;-79
2023/02/22 07:45:30;;;;;;;3.38;0.70;;;;;;;3.56;100.00;100369.09;4944489;28;20046;-79
2023/02/22 07:47:57;;;;;;;8.45;0.60;;;;;;;3.59;100.00;100376.72;4941350;28;20039;-80
2023/02/22 07:50:24;;;;;;;3.00;0.50;;;;;;;3.44;100.00;100378.56;4959332;28;20027;-79
2023/02/22 07:52:53;;;;;;;3.67;0.57;;;;;;;3.31;100.00;100376.72;4953097;28;20520;-79
2023/02/22 07:55:22;;;;;;;4.72;0.90;;;;;;;3.33;100.00;100384.47;4944447;28;20515;-79
2023/02/22 07:57:53;;;;;;;3.65;0.60;;;;;;;3.31;100.00;100381.13;4940536;28;20377;-79
2023/02/22 08:00:29;;;;;;;4.07;1.00;;;;;;;3.25;100.00;100379.72;4946601;28;20044;-79
2023/02/22 08:02:55;;;;;;;8.32;0.77;;;;;;;3.15;100.00;100392.56;4952420;28;20031;-79
2023/02/22 08:05:23;;;;;;;5.60;1.17;;;;;;;3.12;100.00;100381.47;4950010;28;20063;-79
2023/02/22 08:07:49;;;;;;;5.43;0.52;;;;;;;3.10;100.00;100379.81;4951991;28;20035;-79
2023/02/22 08:10:17;;;;;;;7.68;1.67;;;;;;;3.15;100.00;100374.28;4949274;28;20038;-79
2023/02/22 08:12:43;;;;;;;2.75;0.52;;;;;;;3.20;100.00;100377.41;4965573;28;20511;-80
2023/02/22 08:15:16;;;;;;;4.75;0.98;;;;;;;3.26;100.00;100372.75;4950951;28;20102;-80
2023/02/22 08:17:42;;;;;;;4.78;0.55;;;;;;;3.24;100.00;100372.84;4950352;28;20134;-80
2023/02/22 08:20:08;;;;;;;6.30;0.70;;;;;;;3.31;100.00;100376.72;4930796;28;20162;-80
2023/02/22 08:22:34;;;;;;;9.95;1.40;;;;;;;3.37;100.00;100367.69;4933143;29;20043;-80
2023/02/22 08:24:59;;;;;;;5.00;1.00;;;;;;;3.45;100.00;100372.41;4948387;28;20035;-80
2023/02/22 08:27:29;;;;;;;3.83;0.70;;;;;;;3.54;100.00;100384.88;4951142;28;20031;-80
2023/02/22 08:29:55;;;;;;;6.40;1.08;;;;;;;3.55;100.00;100383.91;4949501;28;20105;-80
2023/02/22 08:32:22;;;;;;;8.25;1.50;;;;;;;3.55;100.00;100380.47;4947789;28;20069;-80
2023/02/22 08:34:48;;;;;;;11.73;1.35;;;;;;;3.63;100.00;100390.44;4948735;28;20037;-80
2023/02/22 08:37:16;;;;;;;12.45;1.20;;;;;;;3.62;100.00;100379.13;4947422;28;20031;-80
2023/02/22 08:39:41;;;;;;;15.68;0.90;;;;;;;3.67;100.00;100389.28;4948559;28;20117;-80
2023/02/22 08:42:10;;;;;;;9.85;1.85;;;;;;;3.69;100.00;100382.19;4943989;28;20071;-80
2023/02/22 08:44:38;;;;;;;5.57;0.65;;;;;;;3.77;100.00;100400.81;4946559;28;20510;-80
2023/02/22 08:47:04;;;;;;;5.28;0.65;;;;;;;3.85;100.00;100387.25;4951456;28;20031;-77
2023/02/22 08:49:30;;;;;;;5.65;0.63;;;;;;;3.88;100.00;100394.88;4946087;28;20496;-77
2023/02/22 08:51:56;;;;;;;9.07;0.80;;;;;;;3.93;100.00;100391.97;4935643;29;20058;-80
2023/02/22 08:54:22;;;;;;;10.80;4.80;;;;;;;3.99;100.00;100393.31;4954226;28;20039;-79
2023/02/22 08:56:48;;;;;;;6.95;1.15;;;;;;;4.00;100.00;100395.00;4946916;28;20102;-80
2023/02/22 08:59:15;;;;;;;5.90;0.70;;;;;;;4.07;100.00;100404.97;4947127;28;20384;-80
2023/02/22 09:01:41;;;;;;;4.25;0.60;;;;;;;4.14;100.00;100401.94;4948387;28;20038;-80
2023/02/22 09:04:07;;;;;;;4.45;0.77;;;;;;;4.19;100.00;100399.81;4935772;28;20079;-80
2023/02/22 09:06:34;;;;;;;10.35;0.98;;;;;;;4.20;100.00;100402.31;4922320;28;20090;-77
2023/02/22 09:09:01;;;;;;;7.63;1.33;;;;;;;4.18;100.00;100411.22;4911261;29;20042;-77
2023/02/22 09:11:26;;;;;;;7.40;0.90;;;;;;;4.15;100.00;100406.22;4927176;29;20032;-80
2023/02/22 09:13:52;;;;;;;7.60;1.13;;;;;;;4.12;100.00;100411.66;4948370;28;20035;-80
2023/02/22 09:16:18;;;;;;;9.40;1.00;;;;;;;4.09;100.00;100407.47;4941403;28;20035;-80
2023/02/22 09:18:44;;;;;;;9.20;1.00;;;;;;;4.08;100.00;100400.53;4941326;28;20046;-80
2023/02/22 09:21:11;;;;;;;2.85;0.82;;;;;;;4.12;100.00;100407.25;4948827;28;20050;-80
2023/02/22 09:23:36;;;;;;;11.05;1.30;;;;;;;4.14;100.00;100412.41;4942786;28;20066;-80
2023/02/22 09:26:02;;;;;;;10.07;1.65;;;;;;;4.14;100.00;100415.00;4948623;28;20187;-80
2023/02/22 09:28:28;;;;;;;7.53;1.02;;;;;;;4.17;100.00;100413.00;4947593;28;20035;-80
2023/02/22 09:30:54;;;;;;;13.98;0.90;;;;;;;4.13;100.00;100419.41;4947006;28;20784;-80
2023/02/22 09:33:20;;;;;;;4.13;0.82;;;;;;;4.19;100.00;100429.44;4947588;28;20070;-80
2023/02/22 09:35:48;;;;;;;5.90;0.85;;;;;;;4.26;100.00;100437.72;4947230;28;20451;-79
2023/02/22 09:38:24;;;;;;;9.80;1.13;;;;;;;4.30;100.00;100430.50;4949876;28;20053;-80
2023/02/22 09:41:04;;;;;;;7.68;0.95;;;;;;;4.37;100.00;100434.38;4953680;28;20102;-80
2023/02/22 09:43:40;;;;;;;4.10;0.90;;;;;;;4.44;100.00;100438.25;4940739;28;20538;-80
2023/02/22 09:46:29;;;;;;;10.43;0.85;;;;;;;4.44;100.00;100440.84;4951446;28;20038;-79
2023/02/22 09:48:58;;;;;;;9.70;0.70;;;;;;;4.42;100.00;100442.75;4951925;28;20031;-80
2023/02/22 09:51:56;;;;;;;8.15;1.50;;;;;;;4.41;100.00;100448.91;4935890;29;20035;-80
2023/02/22 09:54:23;;;;;;;5.57;0.85;;;;;;;4.37;100.00;100454.47;4933876;28;20093;-79
2023/02/22 09:56:54;;;;;;;10.57;0.75;;;;;;;4.39;100.00;100447.34;4932889;29;20435;-79
2023/02/22 09:59:28;;;;;;;19.13;2.65;;;;;;;4.44;100.00;100458.38;4973869;28;20047;-79
2023/02/22 10:02:18;;;;;;;6.03;0.75;;;;;;;4.39;100.00;100463.91;4947117;28;20403;-79
2023/02/22 10:04:51;;;;;;;10.52;1.55;;;;;;;4.39;100.00;100458.69;4950155;28;20050;-79
2023/02/22 10:07:28;;;;;;;4.30;0.73;;;;;;;4.41;100.00;100464.63;4961462;28;21715;-79
2023/02/22 10:09:56;;;;;;;8.88;1.17;;;;;;;4.44;100.00;100467.03;4944753;28;20028;-79
2023/02/22 10:12:34;;;;;;;10.98;0.88;;;;;;;4.56;100.00;100461.91;4968149;28;20065;-79
2023/02/22 10:15:41;;;;;;;4.78;0.55;;;;;;;4.72;100.00;100461.69;4961547;28;20093;-79
2023/02/22 10:18:43;;;;;;;2.00;0.55;;;;;;;4.77;100.00;100459.63;4894056;28;20063;-79
2023/02/22 10:21:23;;;;;;;10.57;0.70;;;;;;;4.77;100.00;100461.38;4967496;28;20066;-79
2023/02/22 10:24:01;;;;;;;4.95;0.75;;;;;;;4.79;100.00;100449.88;4947952;28;20379;-79
2023/02/22 10:26:33;;;;;;;8.73;0.90;;;;;;;4.82;100.00;100460.13;4965753;28;20110;-79
2023/02/22 10:29:12;;;;;;;5.03;0.55;;;;;;;4.79;100.00;100462.13;4973944;28;20039;-79
2023/02/22 10:31:46;;;;;;;6.15;0.82;;;;;;;4.76;100.00;100460.53;4933501;28;20388;-79
2023/02/22 10:34:15;;;;;;;7.68;1.30;;;;;;;4.88;100.00;100478.97;4970037;28;20121;-80
2023/02/22 10:36:46;;;;;;;8.50;1.15;;;;;;;4.97;100.00;100468.69;4965220;28;20534;-80
2023/02/22 10:39:33;;;;;;;4.32;0.93;;;;;;;5.15;100.00;100473.59;4948954;28;20055;-79
2023/02/22 10:42:05;;;;;;;9.63;1.98;;;;;;;5.12;100.00;100484.28;4966755;28;20027;-80
2023/02/22 10:44:35;;;;;;;3.65;0.63;;;;;;;5.13;100.00;100488.56;4942729;28;20046;-80
2023/02/22 10:47:05;;;;;;;8.32;1.42;;;;;;;5.04;100.00;100483.97;4969996;28;20078;-80
2023/02/22 10:49:42;;;;;;;13.45;0.80;;;;;;;5.10;100.00;100465.22;4965436;28;20038;-80
2023/02/22 10:52:32;;;;;;;11.70;1.30;;;;;;;5.25;100.00;100467.69;4966230;28;20027;-79
2023/02/22 10:55:01;;;;;;;3.95;0.77;;;;;;;5.30;100.00;100473.47;4945000;28;20042;-80
2023/02/22 10:57:34;;;;;;;9.25;0.75;;;;;;;5.43;100.00;100473.44;4962012;28;20494;-79
2023/02/22 11:00:36;;;;;;;4.68;0.60;;;;;;;5.36;100.00;100470.41;4938997;28;20038;-80
2023/02/22 11:03:14;;;;;;;7.75;0.77;;;;;;;5.39;100.00;100467.56;4916294;28;20047;-80
2023/02/22 11:05:40;;;;;;;5.45;0.75;;;;;;;5.44;100.00;100467.22;4966923;28;20049;-79
2023/02/22 11:08:16;;;;;;;6.93;0.85;;;;;;;5.57;100.00;100464.56;4950066;28;20489;-80
2023/02/22 11:10:42;;;;;;;6.38;0.88;;;;;;;5.66;100.00;100478.78;4947005;28;20039;-80
2023/02/22 11:13:30;;;;;;;7.57;1.63;;;;;;;5.70;100.00;100465.31;4970029;28;20450;-80
2023/02/22 11:16:02;;;;;;;9.07;2.25;;;;;;;5.75;100.00;100477.28;4936665;28;20041;-80
2023/02/22 11:18:34;;;;;;;6.68;0.98;;;;;;;5.84;100.00;100485.28;4929285;29;20045;-80
2023/02/22 11:21:08;;;;;;;5.63;0.70;;;;;;;5.85;100.00;100467.78;4967643;28;20491;-80
2023/02/22 11:23:36;;;;;;;9.98;0.70;;;;;;;5.92;100.00;100473.41;4942526;28;20039;-80
2023/02/22 11:26:16;;;;;;;5.60;0.85;;;;;;;6.08;100.00;100473.16;4971055;28;20069;-79
2023/02/22 11:28:54;;;;;;;3.25;0.57;;;;;;;6.08;100.00;100468.72;4965392;28;20035;-79
2023/02/22 11:31:27;;;;;;;6.63;1.00;;;;;;;6.12;100.00;100469.34;4951199;28;20038;-79
2023/02/22 11:33:59;;;;;;;6.97;1.00;;;;;;;6.09;100.00;100477.44;4970149;28;20042;-79
2023/02/22 11:36:29;;;;;;;7.32;0.80;;;;;;;6.17;100.00;100482.97;4947595;28;20802;-80
2023/02/22 11:38:59;;;;;;;6.10;0.50;;;;;;;6.15;100.00;100476.13;4895957;28;20391;-79
2023/02/22 11:41:33;;;;;;;8.02;0.70;;;;;;;6.14;100.00;100488.44;4965535;28;20353;-79